sensor_id;sensor_type;location;lat;lon;timestamp;P1;durP1;ratioP1;P2;durP2;ratioP2
1416;SDS011;703;51.162;13.574;2023-04-04T00:01:18;35.70;;;8.90;;
1416;SDS011;703;51.162;13.574;2023-04-04T00:03:43;37.53;;;9.30;;
1416;SDS011;703;51.162;13.574;2023-04-04T00:06:09;36.50;;;9.30;;
1416;SDS011;703;51.162;13.574;2023-04-04T00:08:34;36.97;;;9.50;;
1416;SDS011;703;51.162;13.574;2023-04-04T00:11:00;39.10;;;11.00;;
1416;SDS011;703;51.162;13.574;2023-04-04T00:13:25;38.53;;;10.23;;
1416;SDS011;703;51.162;13.574;2023-04-04T00:15:52;37.90;;;10.63;;
1416;SDS011;703;51.162;13.574;2023-04-04T00:18:18;37.47;;;9.57;;
1416;SDS011;703;51.162;13.574;2023-04-04T00:20:43;37.03;;;9.90;;
1416;SDS011;703;51.162;13.574;2023-04-04T00:23:09;37.40;;;9.30;;
1416;SDS011;703;51.162;13.574;2023-04-04T00:25:35;37.67;;;10.10;;
1416;SDS011;703;51.162;13.574;2023-04-04T00:28:03;36.23;;;9.10;;
1416;SDS011;703;51.162;13.574;2023-04-04T00:30:29;37.50;;;9.27;;
1416;SDS011;703;51.162;13.574;2023-04-04T00:32:55;37.10;;;10.23;;
1416;SDS011;703;51.162;13.574;2023-04-04T00:35:21;38.63;;;10.57;;
1416;SDS011;703;51.162;13.574;2023-04-04T00:37:47;38.77;;;10.43;;
1416;SDS011;703;51.162;13.574;2023-04-04T00:40:13;39.73;;;10.57;;
1416;SDS011;703;51.162;13.574;2023-04-04T00:42:38;37.00;;;9.67;;
1416;SDS011;703;51.162;13.574;2023-04-04T00:45:07;36.87;;;9.73;;
1416;SDS011;703;51.162;13.574;2023-04-04T00:47:32;38.33;;;10.10;;
1416;SDS011;703;51.162;13.574;2023-04-04T00:49:59;39.40;;;10.13;;
1416;SDS011;703;51.162;13.574;2023-04-04T00:52:24;38.07;;;10.73;;
1416;SDS011;703;51.162;13.574;2023-04-04T00:54:51;39.73;;;10.20;;
1416;SDS011;703;51.162;13.574;2023-04-04T00:57:18;37.57;;;10.20;;
1416;SDS011;703;51.162;13.574;2023-04-04T00:59:43;36.80;;;9.60;;
1416;SDS011;703;51.162;13.574;2023-04-04T01:02:09;37.07;;;10.00;;
1416;SDS011;703;51.162;13.574;2023-04-04T01:04:35;36.70;;;9.30;;
1416;SDS011;703;51.162;13.574;2023-04-04T01:07:01;37.93;;;9.80;;
1416;SDS011;703;51.162;13.574;2023-04-04T01:09:27;37.50;;;10.10;;
1416;SDS011;703;51.162;13.574;2023-04-04T01:11:52;38.13;;;10.33;;
1416;SDS011;703;51.162;13.574;2023-04-04T01:14:19;37.10;;;10.10;;
1416;SDS011;703;51.162;13.574;2023-04-04T01:16:45;39.07;;;11.60;;
1416;SDS011;703;51.162;13.574;2023-04-04T01:19:15;37.77;;;10.03;;
1416;SDS011;703;51.162;13.574;2023-04-04T01:22:14;37.60;;;9.50;;
1416;SDS011;703;51.162;13.574;2023-04-04T01:24:42;36.50;;;9.60;;
1416;SDS011;703;51.162;13.574;2023-04-04T01:27:10;37.20;;;10.27;;
1416;SDS011;703;51.162;13.574;2023-04-04T01:29:36;36.90;;;9.40;;
1416;SDS011;703;51.162;13.574;2023-04-04T01:32:10;37.43;;;10.33;;
1416;SDS011;703;51.162;13.574;2023-04-04T01:34:41;37.93;;;10.23;;
1416;SDS011;703;51.162;13.574;2023-04-04T01:40:10;37.97;;;10.90;;
1416;SDS011;703;51.162;13.574;2023-04-04T01:42:41;36.70;;;9.77;;
1416;SDS011;703;51.162;13.574;2023-04-04T01:45:09;37.17;;;10.03;;
1416;SDS011;703;51.162;13.574;2023-04-04T01:47:41;38.90;;;11.13;;
1416;SDS011;703;51.162;13.574;2023-04-04T01:50:08;38.07;;;10.47;;
1416;SDS011;703;51.162;13.574;2023-04-04T01:52:34;40.13;;;9.60;;
1416;SDS011;703;51.162;13.574;2023-04-04T01:55:01;37.93;;;10.53;;
1416;SDS011;703;51.162;13.574;2023-04-04T01:57:27;38.13;;;9.90;;
1416;SDS011;703;51.162;13.574;2023-04-04T01:59:53;37.50;;;9.53;;
1416;SDS011;703;51.162;13.574;2023-04-04T02:02:18;38.10;;;10.87;;
1416;SDS011;703;51.162;13.574;2023-04-04T02:04:44;36.70;;;9.13;;
1416;SDS011;703;51.162;13.574;2023-04-04T02:07:09;37.73;;;10.17;;
1416;SDS011;703;51.162;13.574;2023-04-04T02:09:35;37.60;;;10.80;;
1416;SDS011;703;51.162;13.574;2023-04-04T02:12:01;37.53;;;10.73;;
1416;SDS011;703;51.162;13.574;2023-04-04T02:14:26;38.57;;;10.17;;
1416;SDS011;703;51.162;13.574;2023-04-04T02:16:52;37.37;;;9.97;;
1416;SDS011;703;51.162;13.574;2023-04-04T02:19:18;38.07;;;10.07;;
1416;SDS011;703;51.162;13.574;2023-04-04T02:21:43;38.07;;;9.80;;
1416;SDS011;703;51.162;13.574;2023-04-04T02:24:09;37.00;;;10.10;;
1416;SDS011;703;51.162;13.574;2023-04-04T02:26:35;38.37;;;9.80;;
1416;SDS011;703;51.162;13.574;2023-04-04T02:29:00;38.60;;;10.50;;
1416;SDS011;703;51.162;13.574;2023-04-04T02:31:26;37.57;;;10.50;;
1416;SDS011;703;51.162;13.574;2023-04-04T02:33:52;38.23;;;9.97;;
1416;SDS011;703;51.162;13.574;2023-04-04T02:36:17;37.97;;;11.13;;
1416;SDS011;703;51.162;13.574;2023-04-04T02:38:43;37.30;;;10.30;;
1416;SDS011;703;51.162;13.574;2023-04-04T02:41:08;40.07;;;11.03;;
1416;SDS011;703;51.162;13.574;2023-04-04T02:43:34;38.23;;;10.47;;
1416;SDS011;703;51.162;13.574;2023-04-04T02:46:00;39.50;;;10.90;;
1416;SDS011;703;51.162;13.574;2023-04-04T02:48:25;36.90;;;10.00;;
1416;SDS011;703;51.162;13.574;2023-04-04T02:50:51;43.13;;;10.63;;
1416;SDS011;703;51.162;13.574;2023-04-04T02:53:17;38.33;;;10.33;;
1416;SDS011;703;51.162;13.574;2023-04-04T02:55:42;44.47;;;10.20;;
1416;SDS011;703;51.162;13.574;2023-04-04T02:58:08;38.73;;;10.73;;
1416;SDS011;703;51.162;13.574;2023-04-04T03:00:33;38.70;;;10.30;;
1416;SDS011;703;51.162;13.574;2023-04-04T03:02:59;38.40;;;10.97;;
1416;SDS011;703;51.162;13.574;2023-04-04T03:05:25;39.00;;;11.00;;
1416;SDS011;703;51.162;13.574;2023-04-04T03:07:54;38.50;;;10.90;;
1416;SDS011;703;51.162;13.574;2023-04-04T03:10:21;38.70;;;10.70;;
1416;SDS011;703;51.162;13.574;2023-04-04T03:12:47;37.97;;;10.93;;
1416;SDS011;703;51.162;13.574;2023-04-04T03:15:13;41.03;;;10.27;;
1416;SDS011;703;51.162;13.574;2023-04-04T03:17:39;39.27;;;12.37;;
1416;SDS011;703;51.162;13.574;2023-04-04T03:20:05;39.90;;;10.90;;
1416;SDS011;703;51.162;13.574;2023-04-04T03:22:30;39.70;;;12.07;;
1416;SDS011;703;51.162;13.574;2023-04-04T03:24:56;38.97;;;12.10;;
1416;SDS011;703;51.162;13.574;2023-04-04T03:27:22;37.57;;;9.93;;
1416;SDS011;703;51.162;13.574;2023-04-04T03:29:47;38.10;;;10.60;;
1416;SDS011;703;51.162;13.574;2023-04-04T03:32:13;38.50;;;10.37;;
1416;SDS011;703;51.162;13.574;2023-04-04T03:34:38;37.70;;;10.53;;
1416;SDS011;703;51.162;13.574;2023-04-04T03:37:04;37.57;;;10.43;;
1416;SDS011;703;51.162;13.574;2023-04-04T03:39:29;38.60;;;11.03;;
1416;SDS011;703;51.162;13.574;2023-04-04T03:41:55;39.30;;;9.87;;
1416;SDS011;703;51.162;13.574;2023-04-04T03:44:22;38.80;;;10.57;;
1416;SDS011;703;51.162;13.574;2023-04-04T03:46:47;38.70;;;9.90;;
1416;SDS011;703;51.162;13.574;2023-04-04T03:49:13;38.83;;;10.70;;
1416;SDS011;703;51.162;13.574;2023-04-04T03:51:38;40.27;;;11.53;;
1416;SDS011;703;51.162;13.574;2023-04-04T03:54:04;40.33;;;10.83;;
1416;SDS011;703;51.162;13.574;2023-04-04T03:56:29;39.60;;;10.93;;
1416;SDS011;703;51.162;13.574;2023-04-04T03:58:56;39.13;;;10.60;;
1416;SDS011;703;51.162;13.574;2023-04-04T04:01:22;38.07;;;10.90;;
1416;SDS011;703;51.162;13.574;2023-04-04T04:03:47;39.50;;;10.60;;
1416;SDS011;703;51.162;13.574;2023-04-04T04:06:13;40.63;;;11.30;;
1416;SDS011;703;51.162;13.574;2023-04-04T04:08:38;37.80;;;10.83;;
1416;SDS011;703;51.162;13.574;2023-04-04T04:11:04;39.40;;;11.10;;
1416;SDS011;703;51.162;13.574;2023-04-04T04:13:30;39.60;;;11.90;;
1416;SDS011;703;51.162;13.574;2023-04-04T04:15:56;42.30;;;13.00;;
1416;SDS011;703;51.162;13.574;2023-04-04T04:18:22;42.80;;;13.70;;
1416;SDS011;703;51.162;13.574;2023-04-04T04:20:47;40.93;;;12.00;;
1416;SDS011;703;51.162;13.574;2023-04-04T04:23:12;39.47;;;11.97;;
1416;SDS011;703;51.162;13.574;2023-04-04T04:25:38;41.40;;;11.90;;
1416;SDS011;703;51.162;13.574;2023-04-04T04:28:03;39.07;;;10.90;;
1416;SDS011;703;51.162;13.574;2023-04-04T04:30:29;39.60;;;11.47;;
1416;SDS011;703;51.162;13.574;2023-04-04T04:32:55;38.83;;;11.37;;
1416;SDS011;703;51.162;13.574;2023-04-04T04:35:21;40.10;;;12.10;;
1416;SDS011;703;51.162;13.574;2023-04-04T04:37:46;39.30;;;11.70;;
1416;SDS011;703;51.162;13.574;2023-04-04T04:40:12;39.17;;;12.00;;
1416;SDS011;703;51.162;13.574;2023-04-04T04:42:46;43.97;;;12.30;;
1416;SDS011;703;51.162;13.574;2023-04-04T04:45:11;39.53;;;12.10;;
1416;SDS011;703;51.162;13.574;2023-04-04T04:47:37;39.43;;;12.60;;
1416;SDS011;703;51.162;13.574;2023-04-04T04:50:02;41.60;;;13.77;;
1416;SDS011;703;51.162;13.574;2023-04-04T04:52:28;40.80;;;12.10;;
1416;SDS011;703;51.162;13.574;2023-04-04T04:54:55;41.17;;;12.57;;
1416;SDS011;703;51.162;13.574;2023-04-04T04:57:21;39.20;;;11.20;;
1416;SDS011;703;51.162;13.574;2023-04-04T04:59:47;39.30;;;12.23;;
1416;SDS011;703;51.162;13.574;2023-04-04T05:02:13;41.23;;;12.27;;
1416;SDS011;703;51.162;13.574;2023-04-04T05:04:40;39.67;;;11.60;;
1416;SDS011;703;51.162;13.574;2023-04-04T05:07:08;42.77;;;14.50;;
1416;SDS011;703;51.162;13.574;2023-04-04T05:09:36;41.30;;;12.97;;
1416;SDS011;703;51.162;13.574;2023-04-04T05:12:01;40.30;;;12.13;;
1416;SDS011;703;51.162;13.574;2023-04-04T05:14:27;40.50;;;13.10;;
1416;SDS011;703;51.162;13.574;2023-04-04T05:16:53;41.07;;;13.00;;
1416;SDS011;703;51.162;13.574;2023-04-04T05:19:18;43.73;;;12.47;;
1416;SDS011;703;51.162;13.574;2023-04-04T05:21:44;43.13;;;12.90;;
1416;SDS011;703;51.162;13.574;2023-04-04T05:24:09;40.43;;;11.93;;
1416;SDS011;703;51.162;13.574;2023-04-04T05:26:35;38.90;;;11.67;;
1416;SDS011;703;51.162;13.574;2023-04-04T05:29:01;40.50;;;12.93;;
1416;SDS011;703;51.162;13.574;2023-04-04T05:31:26;39.97;;;11.77;;
1416;SDS011;703;51.162;13.574;2023-04-04T05:33:52;40.87;;;13.27;;
1416;SDS011;703;51.162;13.574;2023-04-04T05:36:17;38.80;;;11.90;;
1416;SDS011;703;51.162;13.574;2023-04-04T05:38:43;39.67;;;12.40;;
1416;SDS011;703;51.162;13.574;2023-04-04T05:41:09;40.00;;;13.07;;
1416;SDS011;703;51.162;13.574;2023-04-04T05:43:34;38.30;;;12.03;;
1416;SDS011;703;51.162;13.574;2023-04-04T05:46:00;40.57;;;12.30;;
1416;SDS011;703;51.162;13.574;2023-04-04T05:48:26;41.60;;;11.37;;
1416;SDS011;703;51.162;13.574;2023-04-04T05:50:51;39.20;;;11.83;;
1416;SDS011;703;51.162;13.574;2023-04-04T05:53:17;39.33;;;11.47;;
1416;SDS011;703;51.162;13.574;2023-04-04T05:55:42;40.47;;;13.10;;
1416;SDS011;703;51.162;13.574;2023-04-04T05:58:10;38.93;;;11.93;;
1416;SDS011;703;51.162;13.574;2023-04-04T06:00:36;39.20;;;13.77;;
1416;SDS011;703;51.162;13.574;2023-04-04T06:03:02;40.37;;;13.20;;
1416;SDS011;703;51.162;13.574;2023-04-04T06:05:28;39.70;;;12.47;;
1416;SDS011;703;51.162;13.574;2023-04-04T06:07:53;38.67;;;12.53;;
1416;SDS011;703;51.162;13.574;2023-04-04T06:10:19;41.90;;;12.33;;
1416;SDS011;703;51.162;13.574;2023-04-04T06:12:45;40.10;;;13.00;;
1416;SDS011;703;51.162;13.574;2023-04-04T06:15:10;39.37;;;12.20;;
1416;SDS011;703;51.162;13.574;2023-04-04T06:17:36;40.13;;;12.20;;
1416;SDS011;703;51.162;13.574;2023-04-04T06:20:01;39.97;;;12.60;;
1416;SDS011;703;51.162;13.574;2023-04-04T06:22:28;39.40;;;12.77;;
1416;SDS011;703;51.162;13.574;2023-04-04T06:24:54;38.17;;;12.93;;
1416;SDS011;703;51.162;13.574;2023-04-04T06:27:19;38.23;;;11.83;;
1416;SDS011;703;51.162;13.574;2023-04-04T06:29:46;40.30;;;12.80;;
1416;SDS011;703;51.162;13.574;2023-04-04T06:32:11;39.93;;;13.10;;
1416;SDS011;703;51.162;13.574;2023-04-04T06:34:37;39.23;;;13.00;;
1416;SDS011;703;51.162;13.574;2023-04-04T06:37:03;39.83;;;13.30;;
1416;SDS011;703;51.162;13.574;2023-04-04T06:39:28;41.23;;;14.30;;
1416;SDS011;703;51.162;13.574;2023-04-04T06:41:55;38.47;;;13.40;;
1416;SDS011;703;51.162;13.574;2023-04-04T06:44:21;36.87;;;12.60;;
1416;SDS011;703;51.162;13.574;2023-04-04T06:46:46;43.53;;;14.90;;
1416;SDS011;703;51.162;13.574;2023-04-04T06:49:12;38.00;;;13.10;;
1416;SDS011;703;51.162;13.574;2023-04-04T06:51:38;42.17;;;13.97;;
1416;SDS011;703;51.162;13.574;2023-04-04T06:54:05;37.90;;;11.97;;
1416;SDS011;703;51.162;13.574;2023-04-04T06:56:31;39.10;;;13.80;;
1416;SDS011;703;51.162;13.574;2023-04-04T06:58:56;40.30;;;14.57;;
1416;SDS011;703;51.162;13.574;2023-04-04T07:01:22;38.70;;;13.50;;
1416;SDS011;703;51.162;13.574;2023-04-04T07:03:47;42.53;;;14.60;;
1416;SDS011;703;51.162;13.574;2023-04-04T07:06:16;41.03;;;14.43;;
1416;SDS011;703;51.162;13.574;2023-04-04T07:08:43;38.67;;;13.63;;
1416;SDS011;703;51.162;13.574;2023-04-04T07:11:08;38.03;;;13.97;;
1416;SDS011;703;51.162;13.574;2023-04-04T07:13:34;41.37;;;14.70;;
1416;SDS011;703;51.162;13.574;2023-04-04T07:15:59;38.87;;;13.00;;
1416;SDS011;703;51.162;13.574;2023-04-04T07:18:25;38.73;;;13.90;;
1416;SDS011;703;51.162;13.574;2023-04-04T07:20:51;37.90;;;13.40;;
1416;SDS011;703;51.162;13.574;2023-04-04T07:23:17;37.20;;;13.73;;
1416;SDS011;703;51.162;13.574;2023-04-04T07:25:42;39.13;;;14.40;;
1416;SDS011;703;51.162;13.574;2023-04-04T07:28:08;38.33;;;13.57;;
1416;SDS011;703;51.162;13.574;2023-04-04T07:30:33;39.77;;;13.77;;
1416;SDS011;703;51.162;13.574;2023-04-04T07:32:59;37.47;;;12.00;;
1416;SDS011;703;51.162;13.574;2023-04-04T07:35:25;39.80;;;15.20;;
1416;SDS011;703;51.162;13.574;2023-04-04T07:37:51;38.53;;;13.00;;
1416;SDS011;703;51.162;13.574;2023-04-04T07:40:17;40.40;;;16.37;;
1416;SDS011;703;51.162;13.574;2023-04-04T07:42:43;37.37;;;14.10;;
1416;SDS011;703;51.162;13.574;2023-04-04T07:45:09;37.53;;;14.53;;
1416;SDS011;703;51.162;13.574;2023-04-04T07:47:44;38.47;;;15.23;;
1416;SDS011;703;51.162;13.574;2023-04-04T07:50:10;37.77;;;14.63;;
1416;SDS011;703;51.162;13.574;2023-04-04T07:52:37;37.90;;;15.70;;
1416;SDS011;703;51.162;13.574;2023-04-04T07:55:02;37.20;;;14.80;;
1416;SDS011;703;51.162;13.574;2023-04-04T07:57:29;38.37;;;14.93;;
1416;SDS011;703;51.162;13.574;2023-04-04T07:59:55;37.60;;;14.93;;
1416;SDS011;703;51.162;13.574;2023-04-04T08:02:20;36.40;;;14.00;;
1416;SDS011;703;51.162;13.574;2023-04-04T08:04:46;38.20;;;13.87;;
1416;SDS011;703;51.162;13.574;2023-04-04T08:07:12;36.57;;;12.80;;
1416;SDS011;703;51.162;13.574;2023-04-04T08:09:37;38.60;;;13.53;;
1416;SDS011;703;51.162;13.574;2023-04-04T08:12:03;34.80;;;10.43;;
1416;SDS011;703;51.162;13.574;2023-04-04T08:14:30;39.10;;;11.97;;
1416;SDS011;703;51.162;13.574;2023-04-04T08:16:55;39.60;;;14.00;;
1416;SDS011;703;51.162;13.574;2023-04-04T08:19:21;35.23;;;12.37;;
1416;SDS011;703;51.162;13.574;2023-04-04T08:21:47;36.30;;;12.53;;
1416;SDS011;703;51.162;13.574;2023-04-04T08:24:13;35.90;;;12.50;;
1416;SDS011;703;51.162;13.574;2023-04-04T08:26:38;35.80;;;13.10;;
1416;SDS011;703;51.162;13.574;2023-04-04T08:29:04;35.70;;;12.50;;
1416;SDS011;703;51.162;13.574;2023-04-04T08:31:30;37.90;;;16.63;;
1416;SDS011;703;51.162;13.574;2023-04-04T08:33:56;37.00;;;16.30;;
1416;SDS011;703;51.162;13.574;2023-04-04T08:36:22;36.67;;;15.73;;
1416;SDS011;703;51.162;13.574;2023-04-04T08:38:48;37.17;;;15.70;;
1416;SDS011;703;51.162;13.574;2023-04-04T08:41:13;36.40;;;12.50;;
1416;SDS011;703;51.162;13.574;2023-04-04T08:43:44;36.63;;;12.73;;
1416;SDS011;703;51.162;13.574;2023-04-04T08:46:18;36.97;;;13.40;;
1416;SDS011;703;51.162;13.574;2023-04-04T08:48:45;36.50;;;11.50;;
1416;SDS011;703;51.162;13.574;2023-04-04T08:51:12;36.40;;;15.03;;
1416;SDS011;703;51.162;13.574;2023-04-04T08:53:39;35.93;;;12.80;;
1416;SDS011;703;51.162;13.574;2023-04-04T08:56:05;36.17;;;14.30;;
1416;SDS011;703;51.162;13.574;2023-04-04T08:58:30;38.00;;;12.77;;
1416;SDS011;703;51.162;13.574;2023-04-04T09:00:56;35.20;;;12.90;;
1416;SDS011;703;51.162;13.574;2023-04-04T09:05:52;35.57;;;12.27;;
1416;SDS011;703;51.162;13.574;2023-04-04T09:08:19;36.50;;;15.20;;
1416;SDS011;703;51.162;13.574;2023-04-04T09:10:45;35.20;;;13.17;;
1416;SDS011;703;51.162;13.574;2023-04-04T09:13:12;34.77;;;11.80;;
1416;SDS011;703;51.162;13.574;2023-04-04T09:15:37;34.40;;;11.70;;
1416;SDS011;703;51.162;13.574;2023-04-04T09:18:06;34.33;;;12.80;;
1416;SDS011;703;51.162;13.574;2023-04-04T09:23:05;34.30;;;11.23;;
1416;SDS011;703;51.162;13.574;2023-04-04T09:25:33;34.80;;;12.40;;
1416;SDS011;703;51.162;13.574;2023-04-04T09:27:59;34.47;;;11.80;;
1416;SDS011;703;51.162;13.574;2023-04-04T09:30:26;33.60;;;11.10;;
1416;SDS011;703;51.162;13.574;2023-04-04T09:32:52;33.33;;;10.80;;
1416;SDS011;703;51.162;13.574;2023-04-04T09:35:18;34.27;;;11.60;;
1416;SDS011;703;51.162;13.574;2023-04-04T09:37:44;34.40;;;12.43;;
1416;SDS011;703;51.162;13.574;2023-04-04T09:40:10;33.47;;;13.40;;
1416;SDS011;703;51.162;13.574;2023-04-04T09:42:37;34.07;;;13.47;;
1416;SDS011;703;51.162;13.574;2023-04-04T09:45:03;34.30;;;13.17;;
1416;SDS011;703;51.162;13.574;2023-04-04T09:47:29;33.30;;;11.50;;
1416;SDS011;703;51.162;13.574;2023-04-04T09:49:58;33.43;;;10.37;;
1416;SDS011;703;51.162;13.574;2023-04-04T09:52:24;33.50;;;11.20;;
1416;SDS011;703;51.162;13.574;2023-04-04T09:55:08;35.20;;;11.70;;
1416;SDS011;703;51.162;13.574;2023-04-04T09:57:34;34.27;;;11.90;;
1416;SDS011;703;51.162;13.574;2023-04-04T10:00:05;33.07;;;10.53;;
1416;SDS011;703;51.162;13.574;2023-04-04T10:02:38;33.57;;;10.40;;
1416;SDS011;703;51.162;13.574;2023-04-04T10:05:10;33.90;;;12.13;;
1416;SDS011;703;51.162;13.574;2023-04-04T10:07:37;34.23;;;11.30;;
1416;SDS011;703;51.162;13.574;2023-04-04T10:10:04;33.67;;;11.73;;
1416;SDS011;703;51.162;13.574;2023-04-04T10:12:30;33.20;;;11.33;;
1416;SDS011;703;51.162;13.574;2023-04-04T10:14:57;34.47;;;11.80;;
1416;SDS011;703;51.162;13.574;2023-04-04T10:17:30;33.50;;;12.50;;
1416;SDS011;703;51.162;13.574;2023-04-04T10:20:00;33.40;;;10.73;;
1416;SDS011;703;51.162;13.574;2023-04-04T10:22:30;35.07;;;11.00;;
1416;SDS011;703;51.162;13.574;2023-04-04T10:24:56;36.53;;;11.37;;
1416;SDS011;703;51.162;13.574;2023-04-04T10:27:23;34.47;;;10.40;;
1416;SDS011;703;51.162;13.574;2023-04-04T10:29:49;33.80;;;10.77;;
1416;SDS011;703;51.162;13.574;2023-04-04T10:32:17;33.90;;;13.13;;
1416;SDS011;703;51.162;13.574;2023-04-04T10:34:59;32.63;;;11.40;;
1416;SDS011;703;51.162;13.574;2023-04-04T10:37:30;34.00;;;11.60;;
1416;SDS011;703;51.162;13.574;2023-04-04T10:42:38;33.17;;;11.77;;
1416;SDS011;703;51.162;13.574;2023-04-04T10:45:06;33.00;;;11.20;;
1416;SDS011;703;51.162;13.574;2023-04-04T10:47:34;33.37;;;11.70;;
1416;SDS011;703;51.162;13.574;2023-04-04T10:50:00;36.10;;;13.70;;
1416;SDS011;703;51.162;13.574;2023-04-04T10:52:26;33.00;;;11.20;;
1416;SDS011;703;51.162;13.574;2023-04-04T10:54:56;33.83;;;10.97;;
1416;SDS011;703;51.162;13.574;2023-04-04T10:57:25;32.37;;;9.67;;
1416;SDS011;703;51.162;13.574;2023-04-04T11:00:08;34.53;;;10.27;;
1416;SDS011;703;51.162;13.574;2023-04-04T11:02:46;615.97;;;421.07;;
1416;SDS011;703;51.162;13.574;2023-04-04T11:05:20;616.80;;;399.07;;
1416;SDS011;703;51.162;13.574;2023-04-04T11:07:47;547.60;;;347.50;;
1416;SDS011;703;51.162;13.574;2023-04-04T11:10:21;369.77;;;257.53;;
1416;SDS011;703;51.162;13.574;2023-04-04T11:12:55;35.70;;;11.50;;
1416;SDS011;703;51.162;13.574;2023-04-04T11:15:23;37.63;;;11.30;;
1416;SDS011;703;51.162;13.574;2023-04-04T11:17:54;36.43;;;12.20;;
1416;SDS011;703;51.162;13.574;2023-04-04T11:23:07;34.97;;;12.63;;
1416;SDS011;703;51.162;13.574;2023-04-04T11:25:40;33.47;;;11.10;;
1416;SDS011;703;51.162;13.574;2023-04-04T11:28:14;34.17;;;10.90;;
1416;SDS011;703;51.162;13.574;2023-04-04T11:31:21;38.30;;;12.50;;
1416;SDS011;703;51.162;13.574;2023-04-04T11:39:14;32.90;;;10.50;;
1416;SDS011;703;51.162;13.574;2023-04-04T11:44:17;33.60;;;11.83;;
1416;SDS011;703;51.162;13.574;2023-04-04T11:46:44;34.50;;;12.57;;
1416;SDS011;703;51.162;13.574;2023-04-04T11:49:11;33.63;;;10.60;;
1416;SDS011;703;51.162;13.574;2023-04-04T11:51:41;32.13;;;8.90;;
1416;SDS011;703;51.162;13.574;2023-04-04T11:54:16;32.97;;;11.77;;
1416;SDS011;703;51.162;13.574;2023-04-04T11:56:41;33.10;;;12.27;;
1416;SDS011;703;51.162;13.574;2023-04-04T11:59:11;33.30;;;11.73;;
1416;SDS011;703;51.162;13.574;2023-04-04T12:01:40;32.27;;;10.70;;
1416;SDS011;703;51.162;13.574;2023-04-04T12:04:06;34.17;;;12.60;;
1416;SDS011;703;51.162;13.574;2023-04-04T12:06:33;33.67;;;11.90;;
1416;SDS011;703;51.162;13.574;2023-04-04T12:09:00;33.23;;;10.97;;
1416;SDS011;703;51.162;13.574;2023-04-04T12:11:30;32.03;;;8.17;;
1416;SDS011;703;51.162;13.574;2023-04-04T12:13:58;32.57;;;10.17;;
1416;SDS011;703;51.162;13.574;2023-04-04T12:16:25;33.50;;;12.03;;
1416;SDS011;703;51.162;13.574;2023-04-04T12:18:55;34.50;;;13.20;;
1416;SDS011;703;51.162;13.574;2023-04-04T12:21:24;33.67;;;12.47;;
1416;SDS011;703;51.162;13.574;2023-04-04T12:23:50;34.00;;;11.30;;
1416;SDS011;703;51.162;13.574;2023-04-04T12:26:16;32.93;;;11.40;;
1416;SDS011;703;51.162;13.574;2023-04-04T12:28:43;32.57;;;10.80;;
1416;SDS011;703;51.162;13.574;2023-04-04T12:31:09;32.50;;;10.37;;
1416;SDS011;703;51.162;13.574;2023-04-04T12:33:37;32.97;;;10.97;;
1416;SDS011;703;51.162;13.574;2023-04-04T12:36:04;33.20;;;12.03;;
1416;SDS011;703;51.162;13.574;2023-04-04T12:38:31;32.67;;;11.20;;
1416;SDS011;703;51.162;13.574;2023-04-04T12:40:56;34.00;;;12.03;;
1416;SDS011;703;51.162;13.574;2023-04-04T12:43:25;32.17;;;10.80;;
1416;SDS011;703;51.162;13.574;2023-04-04T12:45:52;33.00;;;11.07;;
1416;SDS011;703;51.162;13.574;2023-04-04T12:48:25;33.40;;;12.60;;
1416;SDS011;703;51.162;13.574;2023-04-04T12:50:53;33.37;;;11.97;;
1416;SDS011;703;51.162;13.574;2023-04-04T12:53:21;33.67;;;13.70;;
1416;SDS011;703;51.162;13.574;2023-04-04T12:55:47;32.40;;;9.00;;
1416;SDS011;703;51.162;13.574;2023-04-04T12:58:18;35.53;;;14.53;;
1416;SDS011;703;51.162;13.574;2023-04-04T13:00:45;33.97;;;11.40;;
1416;SDS011;703;51.162;13.574;2023-04-04T13:03:12;33.60;;;11.30;;
1416;SDS011;703;51.162;13.574;2023-04-04T13:05:41;34.23;;;12.70;;
1416;SDS011;703;51.162;13.574;2023-04-04T13:08:08;34.20;;;12.60;;
1416;SDS011;703;51.162;13.574;2023-04-04T13:13:39;34.40;;;12.87;;
1416;SDS011;703;51.162;13.574;2023-04-04T13:19:02;32.27;;;8.80;;
1416;SDS011;703;51.162;13.574;2023-04-04T13:21:28;33.07;;;10.80;;
1416;SDS011;703;51.162;13.574;2023-04-04T13:23:54;33.00;;;13.70;;
1416;SDS011;703;51.162;13.574;2023-04-04T13:26:20;33.67;;;13.50;;
1416;SDS011;703;51.162;13.574;2023-04-04T13:28:46;32.40;;;10.90;;
1416;SDS011;703;51.162;13.574;2023-04-04T13:31:12;33.07;;;12.03;;
1416;SDS011;703;51.162;13.574;2023-04-04T13:33:39;34.87;;;13.43;;
1416;SDS011;703;51.162;13.574;2023-04-04T13:36:05;35.17;;;10.87;;
1416;SDS011;703;51.162;13.574;2023-04-04T13:38:30;32.33;;;10.90;;
1416;SDS011;703;51.162;13.574;2023-04-04T13:40:56;32.13;;;11.80;;
1416;SDS011;703;51.162;13.574;2023-04-04T13:43:22;37.87;;;23.50;;
1416;SDS011;703;51.162;13.574;2023-04-04T13:45:47;34.60;;;15.83;;
1416;SDS011;703;51.162;13.574;2023-04-04T13:48:13;34.80;;;17.47;;
1416;SDS011;703;51.162;13.574;2023-04-04T13:50:40;35.20;;;17.63;;
1416;SDS011;703;51.162;13.574;2023-04-04T13:53:08;36.00;;;20.47;;
1416;SDS011;703;51.162;13.574;2023-04-04T13:55:34;36.33;;;20.60;;
1416;SDS011;703;51.162;13.574;2023-04-04T13:58:00;37.20;;;23.80;;
1416;SDS011;703;51.162;13.574;2023-04-04T14:00:26;37.33;;;23.67;;
1416;SDS011;703;51.162;13.574;2023-04-04T14:02:52;39.03;;;29.20;;
1416;SDS011;703;51.162;13.574;2023-04-04T14:05:18;39.50;;;30.00;;
1416;SDS011;703;51.162;13.574;2023-04-04T14:07:44;43.67;;;38.97;;
1416;SDS011;703;51.162;13.574;2023-04-04T14:10:09;57.40;;;52.10;;
1416;SDS011;703;51.162;13.574;2023-04-04T14:12:35;41.07;;;35.53;;
1416;SDS011;703;51.162;13.574;2023-04-04T14:15:02;38.60;;;30.23;;
1416;SDS011;703;51.162;13.574;2023-04-04T14:17:28;40.67;;;34.13;;
1416;SDS011;703;51.162;13.574;2023-04-04T14:19:54;40.93;;;35.47;;
1416;SDS011;703;51.162;13.574;2023-04-04T14:22:20;44.07;;;32.80;;
1416;SDS011;703;51.162;13.574;2023-04-04T14:24:45;90.90;;;84.50;;
1416;SDS011;703;51.162;13.574;2023-04-04T14:27:11;40.17;;;33.60;;
1416;SDS011;703;51.162;13.574;2023-04-04T14:29:36;109.17;;;101.83;;
1416;SDS011;703;51.162;13.574;2023-04-04T14:32:01;38.57;;;30.53;;
1416;SDS011;703;51.162;13.574;2023-04-04T14:34:27;41.87;;;37.37;;
1416;SDS011;703;51.162;13.574;2023-04-04T14:36:53;40.50;;;32.07;;
1416;SDS011;703;51.162;13.574;2023-04-04T14:39:18;39.30;;;30.83;;
1416;SDS011;703;51.162;13.574;2023-04-04T14:41:44;38.37;;;28.50;;
1416;SDS011;703;51.162;13.574;2023-04-04T14:44:09;39.57;;;33.87;;
1416;SDS011;703;51.162;13.574;2023-04-04T14:46:35;77.80;;;71.83;;
1416;SDS011;703;51.162;13.574;2023-04-04T14:49:00;37.90;;;27.73;;
1416;SDS011;703;51.162;13.574;2023-04-04T14:51:30;37.53;;;27.50;;
1416;SDS011;703;51.162;13.574;2023-04-04T14:53:56;36.93;;;25.53;;
1416;SDS011;703;51.162;13.574;2023-04-04T14:56:21;36.80;;;25.20;;
1416;SDS011;703;51.162;13.574;2023-04-04T14:58:47;36.60;;;23.97;;
1416;SDS011;703;51.162;13.574;2023-04-04T15:01:12;38.27;;;28.27;;
1416;SDS011;703;51.162;13.574;2023-04-04T15:03:38;37.33;;;26.13;;
1416;SDS011;703;51.162;13.574;2023-04-04T15:06:04;36.80;;;23.77;;
1416;SDS011;703;51.162;13.574;2023-04-04T15:08:30;37.97;;;21.47;;
1416;SDS011;703;51.162;13.574;2023-04-04T15:10:55;38.20;;;25.60;;
1416;SDS011;703;51.162;13.574;2023-04-04T15:13:21;34.93;;;17.67;;